sensor_id;sensor_type;location;lat;lon;timestamp;P1;durP1;ratioP1;P2;durP2;ratioP2
52126;SDS011;38120;53.176;6.614;2023-06-26T00:03:09;8.02;;;6.53;;
52126;SDS011;38120;53.176;6.614;2023-06-26T00:05:40;8.35;;;6.00;;
52126;SDS011;38120;53.176;6.614;2023-06-26T00:08:07;9.07;;;6.43;;
52126;SDS011;38120;53.176;6.614;2023-06-26T00:10:32;9.50;;;7.15;;
52126;SDS011;38120;53.176;6.614;2023-06-26T00:15:24;10.50;;;6.90;;
52126;SDS011;38120;53.176;6.614;2023-06-26T00:17:50;10.60;;;7.22;;
52126;SDS011;38120;53.176;6.614;2023-06-26T00:22:41;10.70;;;7.18;;
52126;SDS011;38120;53.176;6.614;2023-06-26T00:25:07;10.70;;;7.43;;
52126;SDS011;38120;53.176;6.614;2023-06-26T00:27:33;8.57;;;6.50;;
52126;SDS011;38120;53.176;6.614;2023-06-26T00:32:24;9.57;;;6.65;;
52126;SDS011;38120;53.176;6.614;2023-06-26T00:43:39;10.10;;;7.97;;
52126;SDS011;38120;53.176;6.614;2023-06-26T00:46:05;10.00;;;8.25;;
52126;SDS011;38120;53.176;6.614;2023-06-26T00:52:42;11.32;;;8.32;;
52126;SDS011;38120;53.176;6.614;2023-06-26T00:55:08;11.57;;;8.02;;
52126;SDS011;38120;53.176;6.614;2023-06-26T00:57:34;9.70;;;7.35;;
52126;SDS011;38120;53.176;6.614;2023-06-26T01:00:00;10.48;;;7.88;;
52126;SDS011;38120;53.176;6.614;2023-06-26T01:02:28;10.38;;;7.80;;
52126;SDS011;38120;53.176;6.614;2023-06-26T01:04:58;12.95;;;7.97;;
52126;SDS011;38120;53.176;6.614;2023-06-26T01:07:25;9.27;;;7.32;;
52126;SDS011;38120;53.176;6.614;2023-06-26T01:12:16;12.30;;;9.38;;
52126;SDS011;38120;53.176;6.614;2023-06-26T01:14:42;10.10;;;7.97;;
52126;SDS011;38120;53.176;6.614;2023-06-26T01:17:08;11.13;;;8.10;;
52126;SDS011;38120;53.176;6.614;2023-06-26T01:19:40;10.02;;;7.57;;
52126;SDS011;38120;53.176;6.614;2023-06-26T01:25:35;10.15;;;7.72;;
52126;SDS011;38120;53.176;6.614;2023-06-26T01:28:20;11.57;;;7.93;;
52126;SDS011;38120;53.176;6.614;2023-06-26T01:30:49;9.63;;;7.72;;
52126;SDS011;38120;53.176;6.614;2023-06-26T01:33:16;10.80;;;8.10;;
52126;SDS011;38120;53.176;6.614;2023-06-26T01:38:26;10.35;;;7.60;;
52126;SDS011;38120;53.176;6.614;2023-06-26T01:40:52;9.55;;;7.10;;
52126;SDS011;38120;53.176;6.614;2023-06-26T01:46:34;11.87;;;7.33;;
52126;SDS011;38120;53.176;6.614;2023-06-26T01:49:33;10.55;;;7.53;;
52126;SDS011;38120;53.176;6.614;2023-06-26T01:58:05;10.00;;;7.82;;
52126;SDS011;38120;53.176;6.614;2023-06-26T02:00:31;9.05;;;7.75;;
52126;SDS011;38120;53.176;6.614;2023-06-26T02:02:58;11.07;;;7.43;;
52126;SDS011;38120;53.176;6.614;2023-06-26T02:05:24;8.23;;;7.05;;
52126;SDS011;38120;53.176;6.614;2023-06-26T02:07:50;10.50;;;8.15;;
52126;SDS011;38120;53.176;6.614;2023-06-26T02:10:16;10.43;;;7.70;;
52126;SDS011;38120;53.176;6.614;2023-06-26T02:12:42;9.63;;;7.93;;
52126;SDS011;38120;53.176;6.614;2023-06-26T02:15:09;10.98;;;7.75;;
52126;SDS011;38120;53.176;6.614;2023-06-26T02:17:35;11.25;;;7.78;;
52126;SDS011;38120;53.176;6.614;2023-06-26T02:20:04;9.13;;;7.45;;
52126;SDS011;38120;53.176;6.614;2023-06-26T02:22:31;11.77;;;7.68;;
52126;SDS011;38120;53.176;6.614;2023-06-26T02:24:56;10.82;;;8.35;;
52126;SDS011;38120;53.176;6.614;2023-06-26T02:27:22;11.73;;;7.88;;
52126;SDS011;38120;53.176;6.614;2023-06-26T02:29:48;9.68;;;7.90;;
52126;SDS011;38120;53.176;6.614;2023-06-26T02:32:14;10.18;;;8.32;;
52126;SDS011;38120;53.176;6.614;2023-06-26T02:34:39;12.35;;;9.35;;
52126;SDS011;38120;53.176;6.614;2023-06-26T02:37:05;11.07;;;8.90;;
52126;SDS011;38120;53.176;6.614;2023-06-26T02:39:32;11.85;;;9.23;;
52126;SDS011;38120;53.176;6.614;2023-06-26T02:41:59;12.02;;;9.52;;
52126;SDS011;38120;53.176;6.614;2023-06-26T02:44:25;11.25;;;9.25;;
52126;SDS011;38120;53.176;6.614;2023-06-26T02:46:50;14.27;;;9.18;;
52126;SDS011;38120;53.176;6.614;2023-06-26T02:49:16;9.88;;;8.02;;
52126;SDS011;38120;53.176;6.614;2023-06-26T02:51:42;12.40;;;8.95;;
52126;SDS011;38120;53.176;6.614;2023-06-26T02:54:07;11.98;;;9.10;;
52126;SDS011;38120;53.176;6.614;2023-06-26T02:56:33;14.45;;;9.65;;
52126;SDS011;38120;53.176;6.614;2023-06-26T02:58:59;11.68;;;8.57;;
52126;SDS011;38120;53.176;6.614;2023-06-26T03:01:24;11.52;;;9.27;;
52126;SDS011;38120;53.176;6.614;2023-06-26T03:03:51;10.05;;;8.32;;
52126;SDS011;38120;53.176;6.614;2023-06-26T03:06:16;10.82;;;8.00;;
52126;SDS011;38120;53.176;6.614;2023-06-26T03:08:42;11.45;;;9.23;;
52126;SDS011;38120;53.176;6.614;2023-06-26T03:11:08;13.50;;;8.30;;
52126;SDS011;38120;53.176;6.614;2023-06-26T03:16:00;12.93;;;8.85;;
52126;SDS011;38120;53.176;6.614;2023-06-26T03:18:26;12.13;;;9.48;;
52126;SDS011;38120;53.176;6.614;2023-06-26T03:20:52;12.35;;;8.43;;
52126;SDS011;38120;53.176;6.614;2023-06-26T03:23:21;13.07;;;10.07;;
52126;SDS011;38120;53.176;6.614;2023-06-26T03:28:13;13.48;;;10.43;;
52126;SDS011;38120;53.176;6.614;2023-06-26T03:30:39;14.38;;;9.93;;
52126;SDS011;38120;53.176;6.614;2023-06-26T03:33:04;13.75;;;10.18;;
52126;SDS011;38120;53.176;6.614;2023-06-26T03:35:30;14.95;;;9.77;;
52126;SDS011;38120;53.176;6.614;2023-06-26T03:37:56;11.38;;;9.68;;
52126;SDS011;38120;53.176;6.614;2023-06-26T03:40:22;13.10;;;10.23;;
52126;SDS011;38120;53.176;6.614;2023-06-26T03:42:48;12.60;;;10.18;;
52126;SDS011;38120;53.176;6.614;2023-06-26T03:45:14;12.48;;;10.25;;
52126;SDS011;38120;53.176;6.614;2023-06-26T03:47:39;13.23;;;10.85;;
52126;SDS011;38120;53.176;6.614;2023-06-26T03:50:05;13.35;;;10.25;;
52126;SDS011;38120;53.176;6.614;2023-06-26T03:52:31;13.63;;;10.50;;
52126;SDS011;38120;53.176;6.614;2023-06-26T03:54:57;14.05;;;10.73;;
52126;SDS011;38120;53.176;6.614;2023-06-26T03:57:23;13.15;;;10.15;;
52126;SDS011;38120;53.176;6.614;2023-06-26T03:59:49;13.02;;;10.15;;
52126;SDS011;38120;53.176;6.614;2023-06-26T04:02:15;13.25;;;10.57;;
52126;SDS011;38120;53.176;6.614;2023-06-26T04:04:41;18.85;;;10.20;;
52126;SDS011;38120;53.176;6.614;2023-06-26T04:07:06;12.10;;;9.63;;
52126;SDS011;38120;53.176;6.614;2023-06-26T04:09:32;12.27;;;9.95;;
52126;SDS011;38120;53.176;6.614;2023-06-26T04:11:58;12.55;;;10.13;;
52126;SDS011;38120;53.176;6.614;2023-06-26T04:14:23;12.48;;;10.25;;
52126;SDS011;38120;53.176;6.614;2023-06-26T04:16:49;13.60;;;10.13;;
52126;SDS011;38120;53.176;6.614;2023-06-26T04:19:15;14.77;;;10.23;;
52126;SDS011;38120;53.176;6.614;2023-06-26T04:21:40;14.25;;;9.43;;
52126;SDS011;38120;53.176;6.614;2023-06-26T04:24:06;15.30;;;10.63;;
52126;SDS011;38120;53.176;6.614;2023-06-26T04:26:32;13.30;;;9.30;;
52126;SDS011;38120;53.176;6.614;2023-06-26T04:28:58;14.48;;;9.82;;
52126;SDS011;38120;53.176;6.614;2023-06-26T04:31:25;13.07;;;9.43;;
52126;SDS011;38120;53.176;6.614;2023-06-26T04:33:51;11.05;;;8.90;;
52126;SDS011;38120;53.176;6.614;2023-06-26T04:36:19;14.18;;;9.73;;
52126;SDS011;38120;53.176;6.614;2023-06-26T04:43:41;12.23;;;8.93;;
52126;SDS011;38120;53.176;6.614;2023-06-26T04:46:06;15.48;;;9.02;;
52126;SDS011;38120;53.176;6.614;2023-06-26T04:48:32;15.75;;;9.90;;
52126;SDS011;38120;53.176;6.614;2023-06-26T04:50:58;11.38;;;8.93;;
52126;SDS011;38120;53.176;6.614;2023-06-26T04:53:24;14.13;;;9.35;;
52126;SDS011;38120;53.176;6.614;2023-06-26T04:55:50;13.20;;;8.52;;
52126;SDS011;38120;53.176;6.614;2023-06-26T04:58:17;10.93;;;7.93;;
52126;SDS011;38120;53.176;6.614;2023-06-26T05:00:43;14.45;;;8.30;;
52126;SDS011;38120;53.176;6.614;2023-06-26T05:03:09;13.00;;;8.75;;
52126;SDS011;38120;53.176;6.614;2023-06-26T05:05:38;15.25;;;8.55;;
52126;SDS011;38120;53.176;6.614;2023-06-26T05:10:59;13.40;;;8.25;;
52126;SDS011;38120;53.176;6.614;2023-06-26T05:13:34;12.27;;;8.20;;
52126;SDS011;38120;53.176;6.614;2023-06-26T05:16:14;11.57;;;6.93;;
52126;SDS011;38120;53.176;6.614;2023-06-26T05:18:40;19.25;;;9.25;;
52126;SDS011;38120;53.176;6.614;2023-06-26T05:21:06;14.35;;;7.70;;
52126;SDS011;38120;53.176;6.614;2023-06-26T05:23:32;14.68;;;8.95;;
52126;SDS011;38120;53.176;6.614;2023-06-26T05:25:59;12.55;;;8.38;;
52126;SDS011;38120;53.176;6.614;2023-06-26T05:28:27;11.25;;;8.10;;
52126;SDS011;38120;53.176;6.614;2023-06-26T05:30:56;16.23;;;9.90;;
52126;SDS011;38120;53.176;6.614;2023-06-26T05:33:23;13.82;;;8.55;;
52126;SDS011;38120;53.176;6.614;2023-06-26T05:35:51;17.25;;;9.15;;
52126;SDS011;38120;53.176;6.614;2023-06-26T05:38:24;17.92;;;8.77;;
52126;SDS011;38120;53.176;6.614;2023-06-26T05:40:50;13.68;;;8.40;;
52126;SDS011;38120;53.176;6.614;2023-06-26T05:43:16;13.43;;;7.78;;
52126;SDS011;38120;53.176;6.614;2023-06-26T05:45:46;12.73;;;6.90;;
52126;SDS011;38120;53.176;6.614;2023-06-26T05:48:13;15.57;;;7.13;;
52126;SDS011;38120;53.176;6.614;2023-06-26T05:50:39;10.35;;;5.60;;
52126;SDS011;38120;53.176;6.614;2023-06-26T05:53:07;11.52;;;5.63;;
52126;SDS011;38120;53.176;6.614;2023-06-26T05:55:33;12.00;;;6.38;;
52126;SDS011;38120;53.176;6.614;2023-06-26T05:57:59;13.80;;;5.95;;
52126;SDS011;38120;53.176;6.614;2023-06-26T06:00:26;11.15;;;5.40;;
52126;SDS011;38120;53.176;6.614;2023-06-26T06:02:53;11.80;;;5.57;;
52126;SDS011;38120;53.176;6.614;2023-06-26T06:07:45;10.25;;;5.07;;
52126;SDS011;38120;53.176;6.614;2023-06-26T06:10:11;11.93;;;5.50;;
52126;SDS011;38120;53.176;6.614;2023-06-26T06:12:37;16.60;;;5.93;;
52126;SDS011;38120;53.176;6.614;2023-06-26T06:15:05;13.70;;;5.40;;
52126;SDS011;38120;53.176;6.614;2023-06-26T06:17:31;15.77;;;5.90;;
52126;SDS011;38120;53.176;6.614;2023-06-26T06:19:57;13.35;;;4.90;;
52126;SDS011;38120;53.176;6.614;2023-06-26T06:22:23;13.70;;;3.85;;
52126;SDS011;38120;53.176;6.614;2023-06-26T06:24:54;15.32;;;4.72;;
52126;SDS011;38120;53.176;6.614;2023-06-26T06:27:20;10.27;;;4.05;;
52126;SDS011;38120;53.176;6.614;2023-06-26T06:29:46;15.85;;;3.97;;
52126;SDS011;38120;53.176;6.614;2023-06-26T06:32:11;11.27;;;3.00;;
52126;SDS011;38120;53.176;6.614;2023-06-26T06:34:37;13.30;;;3.78;;
52126;SDS011;38120;53.176;6.614;2023-06-26T06:37:03;12.30;;;4.00;;
52126;SDS011;38120;53.176;6.614;2023-06-26T06:39:29;11.52;;;4.22;;
52126;SDS011;38120;53.176;6.614;2023-06-26T06:41:56;10.27;;;3.40;;
52126;SDS011;38120;53.176;6.614;2023-06-26T06:44:21;9.88;;;3.60;;
52126;SDS011;38120;53.176;6.614;2023-06-26T06:46:47;7.10;;;2.75;;
52126;SDS011;38120;53.176;6.614;2023-06-26T06:49:13;10.23;;;3.55;;
52126;SDS011;38120;53.176;6.614;2023-06-26T06:51:39;11.48;;;3.58;;
52126;SDS011;38120;53.176;6.614;2023-06-26T06:54:05;9.98;;;3.33;;
52126;SDS011;38120;53.176;6.614;2023-06-26T06:56:30;12.35;;;3.20;;
52126;SDS011;38120;53.176;6.614;2023-06-26T06:58:56;8.90;;;2.78;;
52126;SDS011;38120;53.176;6.614;2023-06-26T07:01:22;10.15;;;2.97;;
52126;SDS011;38120;53.176;6.614;2023-06-26T07:03:48;8.15;;;2.88;;
52126;SDS011;38120;53.176;6.614;2023-06-26T07:06:13;11.50;;;3.33;;
52126;SDS011;38120;53.176;6.614;2023-06-26T07:08:39;8.20;;;3.03;;
52126;SDS011;38120;53.176;6.614;2023-06-26T07:11:05;16.00;;;3.70;;
52126;SDS011;38120;53.176;6.614;2023-06-26T07:13:30;5.00;;;2.03;;
52126;SDS011;38120;53.176;6.614;2023-06-26T07:15:56;8.85;;;3.13;;
52126;SDS011;38120;53.176;6.614;2023-06-26T07:18:21;8.30;;;2.15;;
52126;SDS011;38120;53.176;6.614;2023-06-26T07:20:47;9.18;;;2.38;;
52126;SDS011;38120;53.176;6.614;2023-06-26T07:23:13;5.82;;;1.80;;
52126;SDS011;38120;53.176;6.614;2023-06-26T07:25:41;6.30;;;2.00;;
52126;SDS011;38120;53.176;6.614;2023-06-26T07:28:10;6.78;;;2.78;;
52126;SDS011;38120;53.176;6.614;2023-06-26T07:30:36;4.05;;;1.65;;
52126;SDS011;38120;53.176;6.614;2023-06-26T07:33:02;5.90;;;2.45;;
52126;SDS011;38120;53.176;6.614;2023-06-26T07:35:28;5.57;;;2.25;;
52126;SDS011;38120;53.176;6.614;2023-06-26T07:37:54;9.90;;;2.30;;
52126;SDS011;38120;53.176;6.614;2023-06-26T07:40:22;5.38;;;1.70;;
52126;SDS011;38120;53.176;6.614;2023-06-26T07:42:47;7.85;;;1.88;;
52126;SDS011;38120;53.176;6.614;2023-06-26T07:45:14;5.85;;;1.85;;
52126;SDS011;38120;53.176;6.614;2023-06-26T07:47:42;8.40;;;2.58;;
52126;SDS011;38120;53.176;6.614;2023-06-26T07:50:08;9.38;;;2.58;;
52126;SDS011;38120;53.176;6.614;2023-06-26T07:52:34;4.35;;;2.05;;
52126;SDS011;38120;53.176;6.614;2023-06-26T07:57:25;4.65;;;1.60;;
52126;SDS011;38120;53.176;6.614;2023-06-26T07:59:51;4.43;;;1.30;;
52126;SDS011;38120;53.176;6.614;2023-06-26T08:02:16;6.70;;;1.60;;
52126;SDS011;38120;53.176;6.614;2023-06-26T08:04:44;5.70;;;1.70;;
52126;SDS011;38120;53.176;6.614;2023-06-26T08:07:10;7.05;;;2.13;;
52126;SDS011;38120;53.176;6.614;2023-06-26T08:09:36;3.78;;;1.90;;
52126;SDS011;38120;53.176;6.614;2023-06-26T08:12:05;5.45;;;1.30;;
52126;SDS011;38120;53.176;6.614;2023-06-26T08:16:56;6.25;;;1.75;;
52126;SDS011;38120;53.176;6.614;2023-06-26T08:19:24;3.55;;;1.70;;
52126;SDS011;38120;53.176;6.614;2023-06-26T08:21:50;5.40;;;1.60;;
52126;SDS011;38120;53.176;6.614;2023-06-26T08:26:44;9.65;;;2.20;;
52126;SDS011;38120;53.176;6.614;2023-06-26T08:29:11;3.22;;;1.27;;
52126;SDS011;38120;53.176;6.614;2023-06-26T08:31:37;3.15;;;1.30;;
52126;SDS011;38120;53.176;6.614;2023-06-26T08:34:04;4.70;;;1.60;;
52126;SDS011;38120;53.176;6.614;2023-06-26T08:36:30;3.20;;;0.95;;
52126;SDS011;38120;53.176;6.614;2023-06-26T08:38:56;4.45;;;1.75;;
52126;SDS011;38120;53.176;6.614;2023-06-26T08:41:22;4.00;;;1.83;;
52126;SDS011;38120;53.176;6.614;2023-06-26T08:43:48;7.25;;;1.70;;
52126;SDS011;38120;53.176;6.614;2023-06-26T08:46:16;4.18;;;1.67;;
52126;SDS011;38120;53.176;6.614;2023-06-26T08:48:44;7.03;;;2.05;;
52126;SDS011;38120;53.176;6.614;2023-06-26T08:51:15;8.15;;;1.80;;
52126;SDS011;38120;53.176;6.614;2023-06-26T08:56:18;8.95;;;1.85;;
52126;SDS011;38120;53.176;6.614;2023-06-26T08:58:47;5.57;;;2.10;;
52126;SDS011;38120;53.176;6.614;2023-06-26T09:01:13;4.93;;;1.67;;
52126;SDS011;38120;53.176;6.614;2023-06-26T09:03:39;3.35;;;1.50;;
52126;SDS011;38120;53.176;6.614;2023-06-26T09:06:06;6.47;;;1.95;;
52126;SDS011;38120;53.176;6.614;2023-06-26T09:08:32;3.92;;;1.75;;
52126;SDS011;38120;53.176;6.614;2023-06-26T09:10:58;3.97;;;1.48;;
52126;SDS011;38120;53.176;6.614;2023-06-26T09:13:23;5.28;;;2.55;;
52126;SDS011;38120;53.176;6.614;2023-06-26T09:15:49;6.25;;;1.98;;
52126;SDS011;38120;53.176;6.614;2023-06-26T09:18:20;5.45;;;2.08;;
52126;SDS011;38120;53.176;6.614;2023-06-26T09:20:46;34.63;;;21.77;;
52126;SDS011;38120;53.176;6.614;2023-06-26T09:25:38;23.25;;;10.40;;
52126;SDS011;38120;53.176;6.614;2023-06-26T09:28:05;5.78;;;3.13;;
52126;SDS011;38120;53.176;6.614;2023-06-26T09:30:31;6.30;;;2.25;;
52126;SDS011;38120;53.176;6.614;2023-06-26T09:32:57;6.22;;;1.70;;
52126;SDS011;38120;53.176;6.614;2023-06-26T09:35:39;5.45;;;1.60;;
52126;SDS011;38120;53.176;6.614;2023-06-26T09:38:04;6.50;;;1.95;;
52126;SDS011;38120;53.176;6.614;2023-06-26T09:40:30;4.82;;;2.10;;
52126;SDS011;38120;53.176;6.614;2023-06-26T09:45:27;6.20;;;2.40;;
52126;SDS011;38120;53.176;6.614;2023-06-26T09:47:53;8.85;;;1.80;;
52126;SDS011;38120;53.176;6.614;2023-06-26T09:50:22;4.75;;;1.80;;
52126;SDS011;38120;53.176;6.614;2023-06-26T09:52:51;4.10;;;2.10;;
52126;SDS011;38120;53.176;6.614;2023-06-26T09:55:19;5.22;;;2.40;;
52126;SDS011;38120;53.176;6.614;2023-06-26T09:57:46;6.10;;;2.55;;
52126;SDS011;38120;53.176;6.614;2023-06-26T10:00:13;5.18;;;2.15;;
52126;SDS011;38120;53.176;6.614;2023-06-26T10:02:39;7.32;;;2.20;;
52126;SDS011;38120;53.176;6.614;2023-06-26T10:05:05;5.25;;;2.00;;
52126;SDS011;38120;53.176;6.614;2023-06-26T10:07:31;6.50;;;2.83;;
52126;SDS011;38120;53.176;6.614;2023-06-26T10:09:57;4.15;;;1.90;;
52126;SDS011;38120;53.176;6.614;2023-06-26T10:12:26;7.32;;;2.45;;
52126;SDS011;38120;53.176;6.614;2023-06-26T10:14:53;6.38;;;2.13;;
52126;SDS011;38120;53.176;6.614;2023-06-26T10:17:20;5.50;;;2.72;;
52126;SDS011;38120;53.176;6.614;2023-06-26T10:19:47;6.03;;;2.47;;
52126;SDS011;38120;53.176;6.614;2023-06-26T10:22:16;6.78;;;2.83;;
52126;SDS011;38120;53.176;6.614;2023-06-26T10:24:43;6.22;;;2.50;;
52126;SDS011;38120;53.176;6.614;2023-06-26T10:27:17;5.60;;;1.98;;
52126;SDS011;38120;53.176;6.614;2023-06-26T10:29:55;8.95;;;2.35;;
52126;SDS011;38120;53.176;6.614;2023-06-26T10:32:34;5.03;;;1.83;;
52126;SDS011;38120;53.176;6.614;2023-06-26T10:35:01;4.25;;;1.92;;
52126;SDS011;38120;53.176;6.614;2023-06-26T10:37:41;4.70;;;1.67;;
52126;SDS011;38120;53.176;6.614;2023-06-26T10:40:11;7.53;;;2.20;;
52126;SDS011;38120;53.176;6.614;2023-06-26T10:42:38;4.20;;;1.85;;
52126;SDS011;38120;53.176;6.614;2023-06-26T10:47:41;3.92;;;2.35;;
52126;SDS011;38120;53.176;6.614;2023-06-26T10:50:17;7.50;;;2.47;;
52126;SDS011;38120;53.176;6.614;2023-06-26T10:52:44;7.00;;;1.95;;
52126;SDS011;38120;53.176;6.614;2023-06-26T10:55:09;5.47;;;2.53;;
52126;SDS011;38120;53.176;6.614;2023-06-26T11:00:08;4.88;;;2.50;;
52126;SDS011;38120;53.176;6.614;2023-06-26T11:02:49;5.55;;;2.20;;
52126;SDS011;38120;53.176;6.614;2023-06-26T11:05:29;6.63;;;2.05;;
52126;SDS011;38120;53.176;6.614;2023-06-26T11:08:04;8.80;;;2.05;;
52126;SDS011;38120;53.176;6.614;2023-06-26T11:10:50;8.13;;;2.42;;
52126;SDS011;38120;53.176;6.614;2023-06-26T11:13:20;3.97;;;1.42;;
52126;SDS011;38120;53.176;6.614;2023-06-26T11:15:47;3.30;;;1.58;;
52126;SDS011;38120;53.176;6.614;2023-06-26T11:18:14;7.35;;;2.20;;
52126;SDS011;38120;53.176;6.614;2023-06-26T11:20:40;7.32;;;1.75;;
52126;SDS011;38120;53.176;6.614;2023-06-26T11:23:07;3.67;;;1.75;;
52126;SDS011;38120;53.176;6.614;2023-06-26T11:25:37;5.45;;;1.98;;
52126;SDS011;38120;53.176;6.614;2023-06-26T11:28:09;4.22;;;1.48;;
52126;SDS011;38120;53.176;6.614;2023-06-26T11:30:35;5.38;;;1.58;;
52126;SDS011;38120;53.176;6.614;2023-06-26T11:35:28;4.43;;;1.40;;
52126;SDS011;38120;53.176;6.614;2023-06-26T11:38:00;4.65;;;2.10;;
52126;SDS011;38120;53.176;6.614;2023-06-26T11:40:33;3.65;;;1.30;;
52126;SDS011;38120;53.176;6.614;2023-06-26T11:43:01;6.40;;;1.80;;
52126;SDS011;38120;53.176;6.614;2023-06-26T11:45:28;5.35;;;1.65;;
52126;SDS011;38120;53.176;6.614;2023-06-26T11:47:58;6.43;;;1.25;;
52126;SDS011;38120;53.176;6.614;2023-06-26T11:50:25;5.18;;;1.20;;
52126;SDS011;38120;53.176;6.614;2023-06-26T11:52:56;3.97;;;1.27;;
52126;SDS011;38120;53.176;6.614;2023-06-26T11:55:23;7.22;;;1.80;;
52126;SDS011;38120;53.176;6.614;2023-06-26T11:57:50;3.83;;;1.02;;
52126;SDS011;38120;53.176;6.614;2023-06-26T12:00:18;5.15;;;1.77;;
52126;SDS011;38120;53.176;6.614;2023-06-26T12:05:10;2.90;;;0.75;;
52126;SDS011;38120;53.176;6.614;2023-06-26T12:07:37;3.58;;;1.10;;
52126;SDS011;38120;53.176;6.614;2023-06-26T12:12:29;3.95;;;1.00;;
52126;SDS011;38120;53.176;6.614;2023-06-26T12:14:55;7.45;;;1.65;;
52126;SDS011;38120;53.176;6.614;2023-06-26T12:17:22;7.38;;;1.88;;
52126;SDS011;38120;53.176;6.614;2023-06-26T12:19:50;7.13;;;1.67;;
52126;SDS011;38120;53.176;6.614;2023-06-26T12:22:19;5.43;;;1.50;;
52126;SDS011;38120;53.176;6.614;2023-06-26T12:24:45;5.85;;;1.17;;
52126;SDS011;38120;53.176;6.614;2023-06-26T12:27:12;11.73;;;2.35;;
52126;SDS011;38120;53.176;6.614;2023-06-26T12:29:40;7.13;;;1.65;;
52126;SDS011;38120;53.176;6.614;2023-06-26T12:32:14;8.73;;;1.60;;
52126;SDS011;38120;53.176;6.614;2023-06-26T12:34:40;9.23;;;1.95;;
52126;SDS011;38120;53.176;6.614;2023-06-26T12:40:17;5.70;;;1.70;;
52126;SDS011;38120;53.176;6.614;2023-06-26T12:42:25;5.38;;;1.58;;
52126;SDS011;38120;53.176;6.614;2023-06-26T12:44:52;6.57;;;1.70;;
52126;SDS011;38120;53.176;6.614;2023-06-26T12:47:23;7.20;;;1.73;;
52126;SDS011;38120;53.176;6.614;2023-06-26T12:49:50;6.28;;;1.77;;
52126;SDS011;38120;53.176;6.614;2023-06-26T12:52:17;4.88;;;2.55;;
52126;SDS011;38120;53.176;6.614;2023-06-26T12:54:44;5.70;;;1.63;;
52126;SDS011;38120;53.176;6.614;2023-06-26T12:57:12;3.35;;;1.33;;
52126;SDS011;38120;53.176;6.614;2023-06-26T12:59:41;8.32;;;2.03;;
52126;SDS011;38120;53.176;6.614;2023-06-26T13:02:07;3.80;;;1.40;;
52126;SDS011;38120;53.176;6.614;2023-06-26T13:04:33;6.30;;;1.48;;
52126;SDS011;38120;53.176;6.614;2023-06-26T13:07:00;3.63;;;1.33;;
52126;SDS011;38120;53.176;6.614;2023-06-26T13:09:26;6.35;;;1.25;;
52126;SDS011;38120;53.176;6.614;2023-06-26T13:12:04;4.63;;;1.48;;
52126;SDS011;38120;53.176;6.614;2023-06-26T13:14:31;6.53;;;2.25;;
52126;SDS011;38120;53.176;6.614;2023-06-26T13:19:23;4.28;;;1.50;;
52126;SDS011;38120;53.176;6.614;2023-06-26T13:21:48;6.07;;;1.40;;
52126;SDS011;38120;53.176;6.614;2023-06-26T13:24:14;5.68;;;2.47;;
52126;SDS011;38120;53.176;6.614;2023-06-26T13:26:40;8.68;;;1.83;;
52126;SDS011;38120;53.176;6.614;2023-06-26T13:29:06;4.30;;;1.27;;
52126;SDS011;38120;53.176;6.614;2023-06-26T13:31:32;3.75;;;1.10;;
52126;SDS011;38120;53.176;6.614;2023-06-26T13:33:58;4.85;;;2.10;;
52126;SDS011;38120;53.176;6.614;2023-06-26T13:36:24;4.82;;;1.25;;
52126;SDS011;38120;53.176;6.614;2023-06-26T13:38:51;3.20;;;1.50;;
52126;SDS011;38120;53.176;6.614;2023-06-26T13:41:23;4.05;;;1.48;;
52126;SDS011;38120;53.176;6.614;2023-06-26T13:43:50;5.28;;;1.70;;
52126;SDS011;38120;53.176;6.614;2023-06-26T13:48:42;3.57;;;1.03;;
52126;SDS011;38120;53.176;6.614;2023-06-26T13:51:09;5.20;;;1.27;;
52126;SDS011;38120;53.176;6.614;2023-06-26T13:53:34;6.18;;;1.38;;
52126;SDS011;38120;53.176;6.614;2023-06-26T13:56:00;8.23;;;1.90;;
52126;SDS011;38120;53.176;6.614;2023-06-26T13:58:26;5.43;;;1.80;;
52126;SDS011;38120;53.176;6.614;2023-06-26T14:00:53;3.97;;;1.00;;
52126;SDS011;38120;53.176;6.614;2023-06-26T14:03:19;3.63;;;1.45;;
52126;SDS011;38120;53.176;6.614;2023-06-26T14:08:10;7.15;;;1.75;;
52126;SDS011;38120;53.176;6.614;2023-06-26T14:10:36;5.13;;;2.35;;
52126;SDS011;38120;53.176;6.614;2023-06-26T14:13:02;2.40;;;0.90;;
52126;SDS011;38120;53.176;6.614;2023-06-26T14:15:29;6.70;;;2.03;;
52126;SDS011;38120;53.176;6.614;2023-06-26T14:17:55;7.07;;;2.03;;
52126;SDS011;38120;53.176;6.614;2023-06-26T14:20:21;8.00;;;2.17;;
52126;SDS011;38120;53.176;6.614;2023-06-26T14:22:50;6.50;;;2.10;;
52126;SDS011;38120;53.176;6.614;2023-06-26T14:25:16;6.88;;;2.03;;
52126;SDS011;38120;53.176;6.614;2023-06-26T14:27:42;3.13;;;1.45;;
52126;SDS011;38120;53.176;6.614;2023-06-26T14:30:08;3.33;;;1.42;;
52126;SDS011;38120;53.176;6.614;2023-06-26T14:35:00;4.45;;;1.23;;
52126;SDS011;38120;53.176;6.614;2023-06-26T14:37:26;5.80;;;1.33;;
52126;SDS011;38120;53.176;6.614;2023-06-26T14:39:54;3.05;;;1.10;;
52126;SDS011;38120;53.176;6.614;2023-06-26T14:42:20;4.68;;;1.35;;
52126;SDS011;38120;53.176;6.614;2023-06-26T14:44:45;6.13;;;1.50;;
52126;SDS011;38120;53.176;6.614;2023-06-26T14:47:16;5.07;;;1.63;;
52126;SDS011;38120;53.176;6.614;2023-06-26T14:49:42;3.45;;;1.50;;
52126;SDS011;38120;53.176;6.614;2023-06-26T14:52:08;4.35;;;1.67;;
52126;SDS011;38120;53.176;6.614;2023-06-26T14:54:34;4.53;;;1.20;;
52126;SDS011;38120;53.176;6.614;2023-06-26T14:57:04;9.73;;;2.35;;
52126;SDS011;38120;53.176;6.614;2023-06-26T14:59:30;3.20;;;1.05;;
52126;SDS011;38120;53.176;6.614;2023-06-26T15:01:56;6.75;;;1.55;;
52126;SDS011;38120;53.176;6.614;2023-06-26T15:04:21;5.63;;;1.40;;
52126;SDS011;38120;53.176;6.614;2023-06-26T15:06:47;8.43;;;1.85;;
52126;SDS011;38120;53.176;6.614;2023-06-26T15:11:45;6.93;;;2.42;;
52126;SDS011;38120;53.176;6.614;2023-06-26T15:14:11;6.45;;;1.98;;
52126;SDS011;38120;53.176;6.614;2023-06-26T15:16:36;4.95;;;2.10;;
52126;SDS011;38120;53.176;6.614;2023-06-26T15:19:04;4.82;;;1.95;;
52126;SDS011;38120;53.176;6.614;2023-06-26T15:21:30;5.82;;;2.17;;
52126;SDS011;38120;53.176;6.614;2023-06-26T15:23:55;7.43;;;1.90;;
52126;SDS011;38120;53.176;6.614;2023-06-26T15:26:21;4.97;;;2.15;;
52126;SDS011;38120;53.176;6.614;2023-06-26T15:28:47;6.65;;;1.67;;
52126;SDS011;38120;53.176;6.614;2023-06-26T15:31:13;7.40;;;1.80;;
52126;SDS011;38120;53.176;6.614;2023-06-26T15:33:38;6.07;;;1.70;;
52126;SDS011;38120;53.176;6.614;2023-06-26T15:36:04;6.40;;;1.80;;
52126;SDS011;38120;53.176;6.614;2023-06-26T15:38:30;7.50;;;1.48;;
52126;SDS011;38120;53.176;6.614;2023-06-26T15:40:56;6.88;;;1.95;;
52126;SDS011;38120;53.176;6.614;2023-06-26T15:43:21;7.85;;;2.20;;
52126;SDS011;38120;53.176;6.614;2023-06-26T15:45:47;9.15;;;2.30;;
52126;SDS011;38120;53.176;6.614;2023-06-26T15:48:13;2.88;;;1.02;;
52126;SDS011;38120;53.176;6.614;2023-06-26T15:50:39;3.78;;;1.63;;
52126;SDS011;38120;53.176;6.614;2023-06-26T15:53:04;5.70;;;2.17;;
52126;SDS011;38120;53.176;6.614;2023-06-26T15:55:30;5.75;;;1.50;;
52126;SDS011;38120;53.176;6.614;2023-06-26T15:57:58;7.53;;;2.33;;
52126;SDS011;38120;53.176;6.614;2023-06-26T16:00:25;9.52;;;2.03;;
52126;SDS011;38120;53.176;6.614;2023-06-26T16:02:50;6.82;;;2.08;;
52126;SDS011;38120;53.176;6.614;2023-06-26T16:05:16;5.30;;;1.70;;
52126;SDS011;38120;53.176;6.614;2023-06-26T16:07:42;5.18;;;2.33;;
52126;SDS011;38120;53.176;6.614;2023-06-26T16:10:08;9.40;;;1.80;;
52126;SDS011;38120;53.176;6.614;2023-06-26T16:12:34;4.55;;;1.65;;
52126;SDS011;38120;53.176;6.614;2023-06-26T16:15:02;6.22;;;1.80;;
52126;SDS011;38120;53.176;6.614;2023-06-26T16:17:31;6.40;;;1.70;;
52126;SDS011;38120;53.176;6.614;2023-06-26T16:19:56;5.82;;;2.15;;